Time;durP1;ratioP1;P1;durP2;ratioP2;P2;SDS_P1;SDS_P2;PMS_P1;PMS_P2;Temp;Humidity;BMP_temperature;BMP_pressure;BME280_temperature;BME280_humidity;BME280_pressure;Samples;Min_cycle;Max_cycle;Signal;HPM_P1;HPM_P2
2021/06/13 00:01:34;;;;;;;15.13;8.37;;;12.30;82.00;;;;;;5049921;28;20048;-69
2021/06/13 00:04:00;;;;;;;19.03;8.50;;;12.20;82.00;;;;;;5050352;28;20048;-70
2021/06/13 00:06:26;;;;;;;15.83;8.63;;;12.20;82.10;;;;;;5050604;28;20049;-69
2021/06/13 00:08:52;;;;;;;16.10;8.00;;;12.20;82.20;;;;;;5049713;28;20061;-70
2021/06/13 00:11:18;;;;;;;12.23;8.13;;;12.20;82.30;;;;;;5050306;28;20057;-68
2021/06/13 00:13:44;;;;;;;16.07;8.57;;;12.20;82.20;;;;;;5050545;28;20073;-69
2021/06/13 00:16:10;;;;;;;18.57;9.27;;;12.20;82.40;;;;;;5053029;28;20059;-68
2021/06/13 00:18:36;;;;;;;14.07;8.07;;;12.10;82.40;;;;;;5054275;28;20459;-68
2021/06/13 00:21:02;;;;;;;14.33;8.33;;;12.10;82.50;;;;;;5054197;28;20137;-68
2021/06/13 00:23:28;;;;;;;15.50;7.80;;;12.10;82.60;;;;;;5053888;28;20045;-68
2021/06/13 00:25:54;;;;;;;22.57;9.73;;;12.20;82.60;;;;;;5054645;28;20041;-68
2021/06/13 00:28:19;;;;;;;16.93;7.77;;;12.20;82.70;;;;;;5054019;28;20106;-68
2021/06/13 00:30:45;;;;;;;16.07;8.67;;;12.20;82.70;;;;;;5053455;28;20136;-68
2021/06/13 00:33:11;;;;;;;17.00;8.93;;;12.20;82.80;;;;;;5053908;28;20489;-68
2021/06/13 00:35:38;;;;;;;20.47;10.03;;;12.10;82.80;;;;;;5054273;28;20072;-68
2021/06/13 00:38:04;;;;;;;11.60;7.63;;;12.10;82.90;;;;;;5053117;28;20489;-68
2021/06/13 00:40:34;;;;;;;17.40;8.13;;;12.10;83.10;;;;;;5054352;28;20084;-68
2021/06/13 00:43:00;;;;;;;17.50;9.93;;;12.00;83.30;;;;;;5053514;28;20045;-68
2021/06/13 00:45:27;;;;;;;18.20;9.60;;;12.00;83.40;;;;;;5053097;28;20048;-68
2021/06/13 00:47:53;;;;;;;16.73;8.93;;;12.00;83.50;;;;;;5053684;28;20438;-69
2021/06/13 00:50:25;;;;;;;20.23;9.03;;;12.00;83.60;;;;;;5053542;28;20119;-68
2021/06/13 00:52:50;;;;;;;21.45;10.02;;;11.90;83.50;;;;;;5053227;28;20049;-69
2021/06/13 00:55:16;;;;;;;16.80;9.97;;;11.90;83.60;;;;;;5053520;28;20049;-68
2021/06/13 00:57:42;;;;;;;17.80;9.10;;;11.90;83.80;;;;;;5053600;28;20494;-68
2021/06/13 01:00:09;;;;;;;16.97;9.83;;;11.90;83.70;;;;;;5053286;28;20053;-68
2021/06/13 01:02:34;;;;;;;18.53;9.63;;;12.00;83.70;;;;;;5054020;28;20080;-68
2021/06/13 01:05:00;;;;;;;17.33;9.70;;;12.00;83.70;;;;;;5052596;28;20073;-68
2021/06/13 01:07:46;;;;;;;22.60;11.23;;;11.90;84.70;;;;;;5053783;28;20510;-68
2021/06/13 01:10:32;;;;;;;17.97;10.10;;;11.90;83.90;;;;;;5053215;28;20060;-68
2021/06/13 01:13:05;;;;;;;23.13;10.63;;;11.90;84.00;;;;;;5052837;28;20049;-69
2021/06/13 01:15:40;;;;;;;19.97;10.73;;;11.90;84.00;;;;;;5053761;28;20393;-68
2021/06/13 01:18:10;;;;;;;17.20;9.37;;;11.80;84.00;;;;;;5053452;28;20049;-68
2021/06/13 01:20:59;;;;;;;21.58;11.25;;;11.90;84.10;;;;;;5052847;28;20045;-68
2021/06/13 01:23:49;;;;;;;21.67;11.07;;;11.90;84.20;;;;;;5053368;28;20049;-68
2021/06/13 01:26:37;;;;;;;19.77;9.57;;;11.80;84.20;;;;;;5051208;28;20144;-67
2021/06/13 01:29:18;;;;;;;20.63;10.50;;;11.80;84.20;;;;;;5053002;28;20064;-69
2021/06/13 01:31:51;;;;;;;21.50;10.55;;;11.80;84.30;;;;;;5053109;28;20392;-68
2021/06/13 01:34:35;;;;;;;17.93;10.50;;;11.80;84.30;;;;;;5052304;28;20044;-68
2021/06/13 01:37:07;;;;;;;20.07;9.93;;;11.80;84.40;;;;;;5052782;28;20092;-69
2021/06/13 01:39:33;;;;;;;20.38;10.38;;;11.70;85.40;;;;;;5053043;28;20053;-68
2021/06/13 01:42:01;;;;;;;19.77;10.03;;;11.70;84.70;;;;;;5051986;28;20053;-69
2021/06/13 01:44:27;;;;;;;22.30;10.00;;;11.70;84.80;;;;;;5052997;28;20498;-68
2021/06/13 01:46:56;;;;;;;19.17;8.97;;;11.70;84.90;;;;;;5052960;28;20049;-68
2021/06/13 01:49:23;;;;;;;22.10;9.93;;;11.70;85.00;;;;;;5051996;28;20355;-68
2021/06/13 01:51:49;;;;;;;16.30;9.47;;;11.70;85.10;;;;;;5052747;28;20056;-68
2021/06/13 01:54:17;;;;;;;20.27;9.67;;;11.60;85.30;;;;;;5051982;28;20045;-69
2021/06/13 01:56:47;;;;;;;17.70;10.03;;;11.60;85.50;;;;;;5052901;28;20219;-68
2021/06/13 01:59:16;;;;;;;19.47;9.67;;;11.60;85.60;;;;;;5052667;28;20056;-68
2021/06/13 02:01:42;;;;;;;23.13;9.80;;;11.60;85.60;;;;;;5052323;28;20431;-68
2021/06/13 02:04:09;;;;;;;18.53;10.03;;;11.60;85.70;;;;;;5052415;28;20069;-68
2021/06/13 02:06:40;;;;;;;20.97;10.97;;;11.60;85.80;;;;;;5052549;28;20049;-68
2021/06/13 02:09:07;;;;;;;21.90;10.88;;;11.60;85.90;;;;;;5051849;28;20051;-68
2021/06/13 02:11:34;;;;;;;23.97;10.93;;;11.50;85.90;;;;;;5052657;28;20057;-68
2021/06/13 02:14:02;;;;;;;23.23;10.00;;;11.50;86.10;;;;;;5052345;28;20045;-69
2021/06/13 02:16:28;;;;;;;17.13;10.67;;;11.50;86.20;;;;;;5051747;28;20048;-69
2021/06/13 02:18:57;;;;;;;16.60;10.20;;;11.40;86.30;;;;;;5052332;28;20045;-68
2021/06/13 02:21:25;;;;;;;23.67;11.10;;;11.40;86.40;;;;;;5052355;28;20140;-68
2021/06/13 02:23:51;;;;;;;22.43;11.07;;;11.40;86.50;;;;;;5051801;28;20386;-68
2021/06/13 02:26:18;;;;;;;20.83;10.83;;;11.40;86.60;;;;;;5051825;28;20045;-68
2021/06/13 02:28:49;;;;;;;21.63;10.27;;;11.40;86.70;;;;;;5052079;28;20528;-68
2021/06/13 02:31:16;;;;;;;19.70;10.05;;;11.40;86.90;;;;;;5050743;28;20090;-68
2021/06/13 02:33:43;;;;;;;19.97;10.37;;;11.30;86.90;;;;;;5052026;28;20212;-68
2021/06/13 02:36:09;;;;;;;21.97;10.93;;;11.30;86.90;;;;;;5051521;28;20434;-68
2021/06/13 02:38:35;;;;;;;18.17;11.53;;;11.30;87.00;;;;;;5051090;28;20109;-67
2021/06/13 02:41:03;;;;;;;23.63;11.03;;;11.30;87.10;;;;;;5051921;28;20354;-68
2021/06/13 02:43:29;;;;;;;24.13;10.57;;;11.30;87.10;;;;;;5051103;28;20055;-69
2021/06/13 02:45:54;;;;;;;19.03;10.50;;;11.30;87.30;;;;;;5051576;28;20049;-68
2021/06/13 02:48:20;;;;;;;23.47;11.07;;;11.30;87.30;;;;;;5051570;28;20049;-68
2021/06/13 02:50:47;;;;;;;20.80;10.80;;;11.30;87.30;;;;;;5050731;28;20052;-68
2021/06/13 02:53:44;;;;;;;18.03;10.17;;;11.30;87.30;;;;;;5051397;28;20112;-68
2021/06/13 02:56:33;;;;;;;18.13;10.53;;;11.30;87.40;;;;;;5051266;28;20048;-68
2021/06/13 02:59:04;;;;;;;18.40;10.97;;;11.30;87.30;;;;;;5050752;28;20041;-68
2021/06/13 03:01:31;;;;;;;17.40;9.73;;;11.20;87.20;;;;;;5051673;28;20060;-68
2021/06/13 03:04:00;;;;;;;20.03;10.80;;;11.20;87.30;;;;;;5051477;28;20044;-68
2021/06/13 03:06:29;;;;;;;17.23;10.27;;;11.20;87.40;;;;;;5050576;28;20057;-68
2021/06/13 03:08:55;;;;;;;17.87;10.17;;;11.30;87.40;;;;;;5051404;28;20107;-68
2021/06/13 03:11:22;;;;;;;14.47;10.37;;;11.20;87.40;;;;;;5051146;28;20548;-68
2021/06/13 03:13:50;;;;;;;20.53;9.83;;;11.30;87.60;;;;;;5051286;28;20045;-68
2021/06/13 03:16:17;;;;;;;17.00;10.37;;;11.20;87.50;;;;;;5050593;28;20435;-68
2021/06/13 03:18:47;;;;;;;18.13;9.80;;;11.20;87.50;;;;;;5050246;28;20052;-68
2021/06/13 03:21:16;;;;;;;17.07;9.63;;;11.20;87.60;;;;;;5050521;28;20087;-68
2021/06/13 03:23:42;;;;;;;20.33;10.73;;;11.20;87.70;;;;;;5050871;28;20107;-68
2021/06/13 03:26:10;;;;;;;19.50;10.33;;;11.20;87.80;;;;;;5050292;28;20075;-68
2021/06/13 03:28:37;;;;;;;18.33;10.37;;;11.20;87.80;;;;;;5051113;28;20041;-68
2021/06/13 03:31:04;;;;;;;22.10;10.57;;;11.20;87.90;;;;;;5050365;28;20511;-68
2021/06/13 03:33:32;;;;;;;18.07;11.37;;;11.20;87.90;;;;;;5050350;28;20052;-69
2021/06/13 03:35:59;;;;;;;20.37;11.00;;;11.20;88.00;;;;;;5050429;28;20103;-68
2021/06/13 03:38:28;;;;;;;18.97;10.47;;;11.20;88.00;;;;;;5051013;28;20052;-68
2021/06/13 03:40:56;;;;;;;21.87;10.93;;;11.20;88.10;;;;;;5050268;28;20049;-68
2021/06/13 03:43:23;;;;;;;20.10;9.97;;;11.20;88.20;;;;;;5050847;28;20124;-68
2021/06/13 03:45:50;;;;;;;19.53;9.70;;;11.20;88.40;;;;;;5050967;28;20072;-68
2021/06/13 03:48:17;;;;;;;16.70;9.90;;;11.10;88.30;;;;;;5049904;28;20052;-68
2021/06/13 03:50:45;;;;;;;20.10;11.27;;;11.20;88.40;;;;;;5050150;28;20088;-68
2021/06/13 03:53:11;;;;;;;18.37;10.23;;;11.20;88.40;;;;;;5050602;28;20049;-68
2021/06/13 03:55:37;;;;;;;16.87;9.70;;;11.20;88.50;;;;;;5050060;28;20045;-68
2021/06/13 03:58:03;;;;;;;22.37;11.40;;;11.20;88.50;;;;;;5050178;28;20052;-68
2021/06/13 04:00:30;;;;;;;23.23;10.63;;;11.30;88.50;;;;;;5050634;28;20056;-68
2021/06/13 04:02:58;;;;;;;18.73;10.70;;;11.30;88.50;;;;;;5049733;28;20080;-68
2021/06/13 04:05:24;;;;;;;21.77;10.90;;;11.30;88.60;;;;;;5050749;28;20045;-68
2021/06/13 04:07:50;;;;;;;19.17;10.03;;;11.30;88.50;;;;;;5049959;28;20045;-68
2021/06/13 04:10:18;;;;;;;17.50;10.67;;;11.30;88.50;;;;;;5050402;28;20214;-68
2021/06/13 04:12:49;;;;;;;15.13;9.97;;;11.40;88.60;;;;;;5050840;28;20132;-68
2021/06/13 04:15:16;;;;;;;;;;;11.40;88.60;;;;;;5050309;28;20048;-68
2021/06/13 04:17:43;;;;;;;15.03;10.07;;;11.40;88.60;;;;;;5050833;28;20008;-68
2021/06/13 04:20:11;;;;;;;16.60;10.40;;;11.40;88.30;;;;;;5050284;28;20053;-68
2021/06/13 04:22:42;;;;;;;18.70;9.87;;;11.50;88.40;;;;;;5049987;28;20045;-68
2021/06/13 04:25:11;;;;;;;18.23;10.55;;;11.50;88.30;;;;;;5050427;28;20049;-68
2021/06/13 04:27:38;;;;;;;18.23;10.57;;;11.50;88.30;;;;;;5050681;28;20053;-68
2021/06/13 04:30:08;;;;;;;20.40;11.30;;;11.60;88.40;;;;;;5049135;28;20139;-68
2021/06/13 04:32:35;;;;;;;19.60;10.30;;;11.70;88.50;;;;;;5050392;28;20503;-67
2021/06/13 04:35:01;;;;;;;19.27;10.90;;;11.80;88.50;;;;;;5050129;28;20056;-68
2021/06/13 04:37:27;;;;;;;15.27;10.33;;;11.90;87.90;;;;;;5049550;28;20052;-68
2021/06/13 04:39:53;;;;;;;18.00;10.80;;;12.00;87.80;;;;;;5050270;28;20052;-68
2021/06/13 04:42:20;;;;;;;22.20;10.03;;;12.10;88.10;;;;;;5050343;28;20148;-68
2021/06/13 04:44:46;;;;;;;16.63;9.17;;;12.20;88.00;;;;;;5049481;28;20060;-68
2021/06/13 04:47:11;;;;;;;16.33;9.07;;;12.30;87.80;;;;;;5049834;28;20486;-68
2021/06/13 04:49:38;;;;;;;16.37;8.60;;;12.30;87.40;;;;;;5050205;28;20060;-68
2021/06/13 04:52:06;;;;;;;20.70;10.27;;;12.30;87.30;;;;;;5049407;28;20045;-68
2021/06/13 04:54:53;;;;;;;17.67;9.20;;;12.40;87.30;;;;;;5050408;28;20045;-68
2021/06/13 04:57:43;;;;;;;18.47;10.13;;;12.40;87.10;;;;;;5049067;28;20045;-68
2021/06/13 05:00:10;;;;;;;19.17;9.60;;;12.50;87.10;;;;;;5050191;28;20052;-69
2021/06/13 05:02:36;;;;;;;19.07;9.03;;;12.50;86.90;;;;;;5053014;28;20056;-69
2021/06/13 05:05:02;;;;;;;17.10;9.00;;;12.60;86.90;;;;;;5052904;28;20049;-70
2021/06/13 05:07:27;;;;;;;17.13;9.03;;;12.60;86.80;;;;;;5053903;28;20121;-69
2021/06/13 05:09:53;;;;;;;20.43;9.20;;;12.60;86.70;;;;;;5053546;28;20085;-69
2021/06/13 05:12:19;;;;;;;20.50;9.37;;;12.70;86.50;;;;;;5052740;28;20075;-69
2021/06/13 05:14:44;;;;;;;16.33;9.10;;;12.70;86.70;;;;;;5053828;28;20179;-69
2021/06/13 05:17:10;;;;;;;20.00;9.30;;;12.90;86.50;;;;;;5053251;28;20060;-68
2021/06/13 05:19:36;;;;;;;17.40;9.10;;;13.00;86.00;;;;;;5053040;28;20106;-70
2021/06/13 05:22:08;;;;;;;15.87;9.00;;;13.10;85.40;;;;;;5053206;28;20057;-69
2021/06/13 05:24:35;;;;;;;13.77;8.83;;;13.20;85.10;;;;;;5053427;28;20041;-70
2021/06/13 05:27:01;;;;;;;16.23;9.53;;;13.20;85.00;;;;;;5052575;28;20048;-70
2021/06/13 05:29:27;;;;;;;19.07;8.73;;;13.20;84.90;;;;;;5053529;28;20072;-70
2021/06/13 05:31:53;;;;;;;18.13;9.03;;;13.20;84.90;;;;;;5052932;28;20049;-70
2021/06/13 05:34:18;;;;;;;16.70;9.03;;;13.30;84.80;;;;;;5052020;28;20127;-69
2021/06/13 05:36:44;;;;;;;16.23;9.63;;;13.30;84.70;;;;;;5053086;28;20045;-70
2021/06/13 05:39:09;;;;;;;16.37;8.57;;;13.40;84.70;;;;;;5052073;28;20101;-70
2021/06/13 05:41:35;;;;;;;20.97;9.40;;;13.40;84.60;;;;;;5053004;28;20045;-70
2021/06/13 05:44:02;;;;;;;18.80;9.00;;;13.50;84.00;;;;;;5052600;28;20041;-70
2021/06/13 05:46:29;;;;;;;16.03;8.70;;;13.60;84.00;;;;;;5052121;28;20091;-70
2021/06/13 05:48:55;;;;;;;15.03;9.17;;;13.70;83.40;;;;;;5052820;28;20045;-70
2021/06/13 05:51:20;;;;;;;17.07;9.63;;;13.70;83.30;;;;;;5052271;28;20071;-72
2021/06/13 05:53:46;;;;;;;18.07;9.30;;;13.70;83.30;;;;;;5052141;28;20150;-70
2021/06/13 05:56:12;;;;;;;17.27;8.60;;;13.70;83.30;;;;;;5052510;28;20504;-70
2021/06/13 05:58:37;;;;;;;16.30;8.93;;;13.70;83.50;;;;;;5052900;28;20481;-68
2021/06/13 06:01:03;;;;;;;16.77;9.03;;;13.70;84.00;;;;;;5052048;28;20109;-71
2021/06/13 06:03:29;;;;;;;20.07;9.57;;;13.90;83.50;;;;;;5052486;28;20045;-70
2021/06/13 06:05:54;;;;;;;21.23;9.30;;;14.00;82.90;;;;;;5052309;28;20467;-71
2021/06/13 06:08:20;;;;;;;14.37;8.30;;;14.10;83.70;;;;;;5051737;28;20135;-69
2021/06/13 06:10:49;;;;;;;16.67;8.90;;;14.20;82.50;;;;;;5052422;28;20049;-70
2021/06/13 06:13:14;;;;;;;15.23;8.20;;;14.20;82.30;;;;;;5051706;28;20049;-70
2021/06/13 06:15:41;;;;;;;17.20;9.00;;;14.20;82.20;;;;;;5051794;28;20106;-70
2021/06/13 06:18:08;;;;;;;19.23;8.60;;;14.30;82.00;;;;;;5052080;28;20060;-70
2021/06/13 06:20:34;;;;;;;15.47;8.77;;;14.30;81.80;;;;;;5051996;28;20524;-69
2021/06/13 06:23:00;;;;;;;15.70;7.60;;;14.30;81.70;;;;;;5051542;28;20143;-69
2021/06/13 06:25:26;;;;;;;14.27;7.87;;;14.40;81.50;;;;;;5052639;28;20049;-69
2021/06/13 06:27:53;;;;;;;15.93;7.57;;;14.40;81.30;;;;;;5052380;28;20098;-70
2021/06/13 06:30:20;;;;;;;15.93;7.30;;;14.50;81.10;;;;;;5050848;28;20077;-70
2021/06/13 06:32:46;;;;;;;16.10;8.37;;;14.50;80.80;;;;;;5051802;28;20477;-69
2021/06/13 06:35:13;;;;;;;20.37;8.03;;;14.50;80.50;;;;;;5051517;28;20429;-70
2021/06/13 06:37:41;;;;;;;16.10;8.03;;;14.60;80.50;;;;;;5051054;28;20491;-71
2021/06/13 06:40:08;;;;;;;16.37;7.77;;;14.60;80.20;;;;;;5051489;28;20049;-69
2021/06/13 06:42:34;;;;;;;14.23;7.07;;;14.60;79.80;;;;;;5051023;28;20086;-70
2021/06/13 06:44:59;;;;;;;14.83;7.47;;;14.70;79.50;;;;;;5051334;28;20245;-71
2021/06/13 06:47:26;;;;;;;11.90;6.77;;;14.80;79.10;;;;;;5051718;28;20049;-70
2021/06/13 06:49:51;;;;;;;14.43;7.53;;;14.90;78.80;;;;;;5050860;28;20045;-69
2021/06/13 06:52:17;;;;;;;11.10;7.23;;;15.00;78.90;;;;;;5051260;28;20350;-69
2021/06/13 06:54:44;;;;;;;13.23;6.97;;;15.00;78.80;;;;;;5051998;28;20041;-69
2021/06/13 06:57:10;;;;;;;14.73;7.67;;;15.10;78.70;;;;;;5050188;28;20579;-69
2021/06/13 06:59:36;;;;;;;15.93;7.63;;;15.10;78.40;;;;;;5051286;28;20139;-72
2021/06/13 07:02:03;;;;;;;15.60;7.03;;;15.30;78.20;;;;;;5050988;28;20049;-72
2021/06/13 07:04:28;;;;;;;12.27;6.03;;;15.30;77.40;;;;;;5050608;28;20052;-71
2021/06/13 07:06:54;;;;;;;13.60;6.10;;;15.40;77.00;;;;;;5051273;28;20049;-70
2021/06/13 07:09:20;;;;;;;11.53;6.27;;;15.50;76.20;;;;;;5051175;28;20386;-70
2021/06/13 07:11:45;;;;;;;14.37;6.00;;;15.50;75.20;;;;;;5050661;28;20044;-70
2021/06/13 07:14:11;;;;;;;10.97;5.97;;;15.60;75.00;;;;;;5050794;28;20458;-70
2021/06/13 07:16:36;;;;;;;10.90;4.90;;;15.50;74.20;;;;;;5051025;28;20097;-70
2021/06/13 07:19:03;;;;;;;10.27;5.00;;;15.60;73.60;;;;;;5050159;28;20500;-71
2021/06/13 07:21:28;;;;;;;13.70;5.13;;;15.70;72.10;;;;;;5051193;28;20048;-70
2021/06/13 07:23:56;;;;;;;10.10;5.90;;;15.80;71.20;;;;;;5050532;28;20129;-70
2021/06/13 07:26:22;;;;;;;10.57;5.23;;;15.80;70.80;;;;;;5050161;28;20076;-70
2021/06/13 07:28:47;;;;;;;13.37;5.63;;;15.80;70.60;;;;;;5050915;28;20044;-70
2021/06/13 07:31:14;;;;;;;14.77;5.73;;;15.80;70.30;;;;;;5050341;28;20514;-67
2021/06/13 07:33:39;;;;;;;9.80;5.60;;;15.80;70.60;;;;;;5049988;28;20446;-69
2021/06/13 07:36:05;;;;;;;12.37;5.33;;;15.80;70.60;;;;;;5050556;28;20056;-70
2021/06/13 07:38:32;;;;;;;9.23;4.57;;;15.90;69.40;;;;;;5050786;28;20048;-69
2021/06/13 07:40:58;;;;;;;6.83;4.13;;;15.90;67.70;;;;;;5049870;28;20057;-69
2021/06/13 07:43:23;;;;;;;8.73;4.17;;;15.90;67.00;;;;;;5050776;28;20041;-68
2021/06/13 07:45:49;;;;;;;11.30;3.97;;;16.00;66.20;;;;;;5049780;28;20045;-70
2021/06/13 07:48:15;;;;;;;9.43;4.47;;;16.00;64.80;;;;;;5050350;28;20060;-68
2021/06/13 07:50:42;;;;;;;9.90;4.57;;;16.00;65.20;;;;;;5050780;28;20048;-70
2021/06/13 07:53:09;;;;;;;10.20;4.27;;;16.00;65.00;;;;;;5049816;28;20049;-70
2021/06/13 07:55:37;;;;;;;8.77;4.40;;;16.10;64.70;;;;;;5050807;28;20122;-70
2021/06/13 07:58:03;;;;;;;7.10;3.93;;;16.10;64.40;;;;;;5050732;28;20500;-70
2021/06/13 08:00:29;;;;;;;11.50;4.50;;;16.20;63.80;;;;;;5050153;28;20136;-69
2021/06/13 08:02:54;;;;;;;11.20;4.70;;;16.30;63.80;;;;;;5051114;28;20076;-69
2021/06/13 08:05:29;;;;;;;8.40;4.53;;;16.30;63.80;;;;;;5050522;28;20512;-69
2021/06/13 08:07:58;;;;;;;9.40;4.70;;;16.40;64.00;;;;;;5049767;28;20045;-69
2021/06/13 08:10:25;;;;;;;10.07;5.07;;;16.50;63.90;;;;;;5050722;28;20397;-69
2021/06/13 08:12:51;;;;;;;9.27;4.60;;;16.50;63.60;;;;;;5049935;28;20148;-68
2021/06/13 08:15:17;;;;;;;13.77;4.80;;;16.60;63.20;;;;;;5049557;28;20443;-70
2021/06/13 08:17:43;;;;;;;14.30;5.50;;;16.60;62.90;;;;;;5050339;28;20102;-69
2021/06/13 08:20:10;;;;;;;10.17;4.67;;;16.70;62.70;;;;;;5050369;28;20114;-69
2021/06/13 08:22:35;;;;;;;8.90;4.20;;;16.80;62.90;;;;;;5049947;28;20048;-68
2021/06/13 08:25:01;;;;;;;10.30;4.53;;;17.00;62.40;;;;;;5050384;28;20052;-71
2021/06/13 08:27:28;;;;;;;9.83;4.60;;;17.10;62.20;;;;;;5050697;28;20049;-70
2021/06/13 08:29:54;;;;;;;10.47;5.20;;;17.10;62.30;;;;;;5049999;28;20098;-69
2021/06/13 08:32:20;;;;;;;10.70;4.63;;;17.20;61.50;;;;;;5050181;28;20049;-70
2021/06/13 08:34:46;;;;;;;7.67;3.77;;;17.30;61.20;;;;;;5050477;28;20145;-69
2021/06/13 08:37:12;;;;;;;10.77;5.03;;;17.40;60.30;;;;;;5052699;28;20533;-69
2021/06/13 08:39:38;;;;;;;9.47;4.30;;;17.50;60.20;;;;;;5054199;28;20045;-70
2021/06/13 08:42:04;;;;;;;10.23;4.70;;;17.60;60.10;;;;;;5053062;28;20097;-71
2021/06/13 08:44:31;;;;;;;7.83;4.03;;;17.70;59.80;;;;;;5054453;28;20040;-70
2021/06/13 08:46:58;;;;;;;11.30;4.33;;;17.80;59.80;;;;;;5054243;28;20053;-70
2021/06/13 08:49:24;;;;;;;11.70;4.20;;;18.00;60.70;;;;;;5053451;28;20336;-70
2021/06/13 08:51:51;;;;;;;8.63;4.40;;;18.20;60.50;;;;;;5053561;28;20053;-71
2021/06/13 08:54:17;;;;;;;8.40;3.93;;;18.30;59.20;;;;;;5053773;28;20134;-70
2021/06/13 08:56:42;;;;;;;9.20;4.27;;;18.30;58.70;;;;;;5052629;28;20103;-68
2021/06/13 08:59:10;;;;;;;7.97;4.20;;;18.40;57.60;;;;;;5053490;28;20057;-71
2021/06/13 09:01:36;;;;;;;9.27;4.47;;;18.40;57.30;;;;;;5053891;28;20056;-69
2021/06/13 09:04:02;;;;;;;8.27;4.33;;;18.50;57.20;;;;;;5053025;28;20049;-69
2021/06/13 09:06:28;;;;;;;11.33;4.30;;;18.50;57.00;;;;;;5053694;28;20519;-70
2021/06/13 09:08:54;;;;;;;7.43;3.83;;;18.60;57.00;;;;;;5053368;28;20127;-69
2021/06/13 09:11:32;;;;;;;9.17;4.20;;;18.60;57.10;;;;;;5052481;28;20132;-69
2021/06/13 09:14:14;;;;;;;7.77;4.03;;;18.70;56.90;;;;;;5053499;28;20501;-70
2021/06/13 09:16:44;;;;;;;10.03;4.00;;;18.80;57.10;;;;;;5053689;28;20139;-69
2021/06/13 09:19:11;;;;;;;10.97;5.23;;;18.90;57.10;;;;;;5052827;28;20116;-68
2021/06/13 09:21:39;;;;;;;11.23;4.30;;;19.10;57.90;;;;;;5053762;28;20106;-70
2021/06/13 09:24:19;;;;;;;6.43;3.90;;;19.30;57.80;;;;;;5053433;28;20041;-70
2021/06/13 09:26:45;;;;;;;10.00;4.27;;;19.60;56.00;;;;;;5053454;28;20045;-71
2021/06/13 09:29:11;;;;;;;8.07;3.90;;;19.70;57.10;;;;;;5053194;28;20059;-71
2021/06/13 09:31:37;;;;;;;7.00;4.03;;;19.80;55.70;;;;;;5051359;28;20516;-72
2021/06/13 09:34:08;;;;;;;6.60;4.30;;;20.00;54.40;;;;;;5053158;28;20156;-71
2021/06/13 09:36:35;;;;;;;10.45;4.30;;;20.10;53.70;;;;;;5052283;28;20087;-71
2021/06/13 09:39:04;;;;;;;9.67;4.53;;;20.20;53.90;;;;;;5051993;28;20089;-71
2021/06/13 09:41:32;;;;;;;10.33;4.63;;;20.20;52.00;;;;;;5052697;28;20052;-72
2021/06/13 09:44:02;;;;;;;7.27;3.43;;;20.20;51.50;;;;;;5052800;28;20131;-72
2021/06/13 09:46:31;;;;;;;10.73;4.30;;;20.40;51.70;;;;;;5052021;28;20045;-70
2021/06/13 09:49:22;;;;;;;10.40;4.17;;;20.50;50.90;;;;;;5052289;28;20546;-72
2021/06/13 09:51:52;;;;;;;10.63;4.47;;;20.50;50.50;;;;;;5047836;28;20075;-71
2021/06/13 09:54:24;;;;;;;8.50;4.20;;;20.60;50.30;;;;;;5051902;28;20482;-71
2021/06/13 09:56:50;;;;;;;10.50;3.27;;;20.60;50.60;;;;;;5052791;28;20083;-72
2021/06/13 09:59:19;;;;;;;9.63;3.83;;;20.60;50.70;;;;;;5052186;28;20049;-71
2021/06/13 10:01:52;;;;;;;8.67;4.63;;;20.70;50.70;;;;;;5053077;28;20073;-69
2021/06/13 10:04:18;;;;;;;8.47;3.87;;;20.80;50.60;;;;;;5052602;28;20109;-70
2021/06/13 10:06:46;;;;;;;11.40;4.60;;;20.90;50.70;;;;;;5051964;28;20546;-68
2021/06/13 10:09:13;;;;;;;9.47;4.03;;;21.00;50.70;;;;;;5052412;28;20076;-68
2021/06/13 10:11:39;;;;;;;7.33;3.73;;;21.10;50.00;;;;;;5051842;28;20049;-67
2021/06/13 10:14:12;;;;;;;8.67;4.23;;;21.00;49.90;;;;;;5050375;28;20072;-67
2021/06/13 10:16:47;;;;;;;8.50;3.60;;;21.10;48.80;;;;;;5051341;28;20159;-67
2021/06/13 10:19:26;;;;;;;10.73;4.33;;;21.00;48.90;;;;;;5049950;28;20044;-67
2021/06/13 10:21:57;;;;;;;9.83;4.27;;;20.90;50.10;;;;;;5049014;28;20097;-68
2021/06/13 10:24:28;;;;;;;8.68;4.28;;;20.90;49.80;;;;;;5051666;28;20493;-69
2021/06/13 10:27:01;;;;;;;9.27;4.25;;;21.00;50.10;;;;;;5050404;28;20158;-69
2021/06/13 10:29:29;;;;;;;8.70;4.30;;;21.20;49.80;;;;;;5042957;28;20040;-68
2021/06/13 10:31:58;;;;;;;9.07;5.33;;;21.20;49.80;;;;;;5051219;28;20064;-71
2021/06/13 10:34:25;;;;;;;10.43;4.90;;;21.20;49.70;;;;;;5051658;28;20045;-69
2021/06/13 10:36:52;;;;;;;7.53;3.77;;;20.90;49.60;;;;;;5047865;28;20044;-71
2021/06/13 10:39:21;;;;;;;10.17;4.33;;;20.70;50.10;;;;;;5050736;28;20056;-69
2021/06/13 10:41:47;;;;;;;10.17;4.80;;;20.80;49.80;;;;;;5050650;28;20045;-71
2021/06/13 10:44:18;;;;;;;8.53;4.23;;;20.90;49.60;;;;;;5054076;28;20223;-72
2021/06/13 10:46:50;;;;;;;9.23;4.70;;;20.90;48.90;;;;;;5051297;28;20513;-69
2021/06/13 10:49:34;;;;;;;9.00;4.00;;;21.00;49.40;;;;;;5048558;28;20053;-69
2021/06/13 10:52:07;;;;;;;8.57;3.83;;;21.00;49.20;;;;;;5049453;28;20041;-67
2021/06/13 10:54:51;;;;;;;9.43;4.37;;;21.20;49.30;;;;;;5048985;28;20456;-70
2021/06/13 10:57:17;;;;;;;10.87;5.30;;;21.40;49.00;;;;;;5048593;28;20068;-70
2021/06/13 10:59:45;;;;;;;9.13;5.30;;;21.40;49.00;;;;;;5051245;28;20049;-71
2021/06/13 11:02:14;;;;;;;10.57;4.70;;;21.40;49.20;;;;;;5048337;28;20152;-69
2021/06/13 11:05:02;;;;;;;12.40;5.10;;;21.30;49.50;;;;;;5050488;28;20041;-68
2021/06/13 11:10:10;;;;;;;7.00;4.30;;;21.50;49.40;;;;;;5050349;28;20048;-67
2021/06/13 11:12:46;;;;;;;;;;;21.60;47.90;;;;;;5049159;28;20495;-72
2021/06/13 11:15:12;;;;;;;11.13;4.47;;;21.70;48.60;;;;;;5048124;28;20023;-69
2021/06/13 11:17:56;;;;;;;9.60;4.70;;;21.80;48.40;;;;;;5049436;28;20509;-71
2021/06/13 11:20:29;;;;;;;7.90;4.07;;;21.80;47.30;;;;;;5049901;28;20052;-71
2021/06/13 11:22:56;;;;;;;9.67;4.67;;;21.80;47.90;;;;;;5048486;28;20053;-72
2021/06/13 11:25:25;;;;;;;12.50;5.00;;;21.90;48.00;;;;;;5046241;28;20122;-71
2021/06/13 11:28:15;;;;;;;8.90;4.80;;;21.90;47.70;;;;;;5047744;28;20674;-73
2021/06/13 11:30:57;;;;;;;9.63;5.10;;;22.00;47.90;;;;;;5048907;28;20053;-72
2021/06/13 11:33:35;;;;;;;9.50;4.90;;;22.10;48.60;;;;;;5048558;28;20467;-72
2021/06/13 11:36:06;;;;;;;10.80;5.13;;;22.20;48.40;;;;;;5049678;28;20108;-72
2021/06/13 11:38:32;;;;;;;8.10;5.03;;;22.30;48.10;;;;;;5050106;28;20549;-72
2021/06/13 11:41:01;;;;;;;10.23;4.90;;;22.30;48.70;;;;;;5051185;28;20073;-72
2021/06/13 11:43:43;;;;;;;10.97;4.53;;;22.40;49.60;;;;;;5050809;28;20128;-78
2021/06/13 11:46:10;;;;;;;8.87;4.67;;;22.60;48.10;;;;;;5050275;28;20048;-74
2021/06/13 11:48:38;;;;;;;8.87;4.07;;;22.60;47.50;;;;;;5050713;28;20099;-72
2021/06/13 11:51:10;;;;;;;9.80;4.90;;;22.60;47.10;;;;;;5050290;28;20490;-73
2021/06/13 11:53:55;;;;;;;8.00;4.10;;;22.70;47.50;;;;;;5050260;28;20041;-75
2021/06/13 11:56:33;;;;;;;9.00;4.63;;;22.90;46.60;;;;;;5051014;28;20512;-72
2021/06/13 11:59:15;;;;;;;10.23;5.00;;;23.00;47.40;;;;;;5050019;28;20049;-73
2021/06/13 12:01:45;;;;;;;7.87;4.17;;;23.00;47.50;;;;;;5050818;28;20045;-73
2021/06/13 12:04:14;;;;;;;7.67;4.30;;;22.90;46.80;;;;;;5050704;28;20436;-73
2021/06/13 12:06:40;;;;;;;7.63;4.20;;;22.70;46.80;;;;;;5050241;28;20139;-74
2021/06/13 12:09:08;;;;;;;9.82;4.20;;;22.80;46.80;;;;;;5050789;28;20140;-72
2021/06/13 12:11:45;;;;;;;8.38;4.75;;;22.80;45.80;;;;;;5053703;28;20052;-74
2021/06/13 12:14:19;;;;;;;10.32;4.00;;;23.00;45.40;;;;;;5053958;28;20150;-72
2021/06/13 12:16:49;;;;;;;10.70;4.55;;;23.00;45.30;;;;;;5054719;28;20056;-72
2021/06/13 12:19:23;;;;;;;9.10;4.00;;;23.10;46.00;;;;;;5054588;28;20052;-72
2021/06/13 12:21:49;;;;;;;8.15;4.22;;;23.10;45.60;;;;;;5053441;28;20521;-73
2021/06/13 12:29:40;;;;;;;9.52;4.53;;;23.40;46.20;;;;;;5054758;28;20041;-74
2021/06/13 12:32:12;;;;;;;8.48;4.30;;;23.50;45.40;;;;;;5053788;28;20063;-72
2021/06/13 12:34:37;;;;;;;9.45;4.43;;;23.50;45.60;;;;;;5053759;28;20041;-73
2021/06/13 12:37:05;;;;;;;9.07;5.40;;;23.40;45.90;;;;;;5054043;28;20063;-75
2021/06/13 12:39:31;;;;;;;8.15;4.18;;;23.50;45.70;;;;;;5054214;28;20045;-74
2021/06/13 12:42:11;;;;;;;9.18;4.75;;;23.50;45.20;;;;;;5053171;28;20578;-71
2021/06/13 12:44:39;;;;;;;9.38;4.72;;;23.40;45.00;;;;;;5054477;28;20076;-71
2021/06/13 12:47:07;;;;;;;9.32;4.85;;;23.10;45.20;;;;;;5053775;28;20052;-72
2021/06/13 12:49:45;;;;;;;8.23;4.40;;;23.00;44.80;;;;;;5052927;28;20107;-72
2021/06/13 12:52:11;;;;;;;6.53;4.05;;;22.90;45.00;;;;;;5035435;28;20056;-74
2021/06/13 12:54:37;;;;;;;10.60;4.72;;;22.70;45.60;;;;;;5053927;28;20136;-72